Terminal Aerodrome Forecast
Issued by NWS

Home | Current Version | Previous Version | Text Only | Print | Product List | Glossary On
Versions: 1 2 3 4 5 6 7 8 9 10 11 12 13 14 15 16 17 18 19 20 21 22 23 24 25 26 27 28 29 30 31 32 33 34 35 36 37 38 39
912
FTUS45 KPIH 210555 AAA
TAFSUN
TAF AMD
KSUN 210555Z 2106/2206 12008KT 3SM -RASN BR BKN004 OVC010
     FM211100 18007KT P6SM VCSH SCT020 BKN050
     FM211900 20011G21KT P6SM -SHRA VCTS SCT015 BKN035CB
     FM220000 25011KT P6SM VCSH SCT020 BKN040
     FM220400 29010KT P6SM VCSH SCT030 BKN060
      AMD LTD TO CLD VIS AND WIND TIL 211400=

USA.gov is the U.S. government's official web portal to all federal, state and local government web resources and services.